Time;durP1;ratioP1;P1;durP2;ratioP2;P2;SDS_P1;SDS_P2;PMS_P1;PMS_P2;Temp;Humidity;BMP_temperature;BMP_pressure;BME280_temperature;BME280_humidity;BME280_pressure;Samples;Min_cycle;Max_cycle;Signal;HPM_P1;HPM_P2
2023/10/19 00:00:56;;;;;;;16.40;12.80;;;8.70;99.90;;;7.75;89.35;99392.50;5056313;28;20193;-71
2023/10/19 00:03:26;;;;;;;15.83;13.83;;;8.70;99.90;;;7.72;88.87;99390.19;5055916;28;20292;-71
2023/10/19 00:05:56;;;;;;;18.60;15.07;;;8.70;99.90;;;7.77;89.53;99381.69;5056405;28;20222;-71
2023/10/19 00:08:36;;;;;;;15.67;14.07;;;8.60;99.90;;;7.74;89.52;99387.38;5056103;28;20213;-71
2023/10/19 00:11:08;;;;;;;16.80;15.00;;;8.60;99.90;;;7.71;88.93;99393.84;5055738;28;20214;-71
2023/10/19 00:13:38;;;;;;;18.70;15.30;;;8.60;99.90;;;7.70;89.48;99391.38;5056074;28;20197;-71
2023/10/19 00:16:12;;;;;;;17.87;15.37;;;8.50;99.90;;;7.71;89.73;99393.03;5055615;28;20753;-71
2023/10/19 00:18:42;;;;;;;21.00;15.97;;;8.60;99.90;;;7.74;89.88;99382.84;5055627;28;20580;-71
2023/10/19 00:21:19;;;;;;;19.37;16.50;;;8.70;99.90;;;7.71;88.92;99377.03;5055956;28;20561;-71
2023/10/19 00:23:49;;;;;;;17.77;15.87;;;8.60;99.90;;;7.74;90.00;99376.72;5055844;28;20285;-71
2023/10/19 00:26:19;;;;;;;19.33;17.10;;;8.70;99.90;;;7.69;89.27;99374.56;5055472;28;20707;-71
2023/10/19 00:28:52;;;;;;;20.63;18.20;;;8.70;99.90;;;7.70;89.37;99370.91;5055759;28;20186;-71
2023/10/19 00:31:20;;;;;;;18.97;16.93;;;8.60;99.90;;;7.70;89.39;99372.75;5055667;28;20300;-71
2023/10/19 00:33:51;;;;;;;20.73;17.77;;;8.70;99.90;;;7.68;89.13;99366.72;5055363;28;20766;-71
2023/10/19 00:36:21;;;;;;;20.47;16.97;;;8.50;99.90;;;7.67;89.45;99362.44;5055558;28;20236;-71
2023/10/19 00:38:53;;;;;;;21.53;17.53;;;8.70;99.90;;;7.63;89.73;99352.13;5055265;28;20626;-71
2023/10/19 00:41:29;;;;;;;21.07;18.17;;;8.60;99.90;;;7.61;90.01;99354.13;5055243;28;20719;-72
2023/10/19 00:44:03;;;;;;;21.10;17.83;;;8.60;99.90;;;7.58;90.36;99354.47;5055221;28;20220;-72
2023/10/19 00:46:34;;;;;;;20.87;18.33;;;8.50;99.90;;;7.58;90.29;99348.31;5055390;28;20283;-72
2023/10/19 00:49:05;;;;;;;21.30;18.00;;;8.60;99.90;;;7.56;91.56;99345.84;5055421;28;20194;-72
2023/10/19 00:51:45;;;;;;;23.47;18.93;;;8.60;99.90;;;7.51;91.45;99347.34;5055297;28;20246;-72
2023/10/19 00:54:26;;;;;;;20.47;18.03;;;8.40;99.90;;;7.49;91.75;99346.72;5055271;28;20240;-72
2023/10/19 00:56:58;;;;;;;22.80;19.13;;;8.60;99.90;;;7.49;92.30;99341.38;5055280;28;20301;-72
2023/10/19 00:59:30;;;;;;;21.97;19.23;;;8.50;99.90;;;7.48;93.07;99343.22;5055159;28;20285;-72
2023/10/19 01:02:16;;;;;;;24.33;19.73;;;8.40;99.90;;;7.51;92.71;99339.38;5055149;28;20277;-72
2023/10/19 01:04:50;;;;;;;23.50;18.97;;;8.50;99.90;;;7.47;93.38;99327.41;5055020;28;20237;-72
2023/10/19 01:07:22;;;;;;;27.03;19.97;;;8.40;99.90;;;7.42;93.32;99316.47;5055018;28;20209;-72
2023/10/19 01:09:56;;;;;;;25.43;19.20;;;8.30;99.90;;;7.42;93.34;99317.28;5055039;28;20191;-72
2023/10/19 01:12:33;;;;;;;22.50;18.87;;;8.50;99.90;;;7.41;93.20;99318.28;5054917;28;20221;-72
2023/10/19 01:15:07;;;;;;;24.20;19.73;;;8.40;99.90;;;7.36;93.87;99323.31;5054838;28;20309;-72
2023/10/19 01:17:39;;;;;;;28.00;20.23;;;8.30;99.90;;;7.36;93.99;99325.97;5054541;28;20604;-72
2023/10/19 01:20:21;;;;;;;22.30;18.93;;;8.30;99.90;;;7.40;94.44;99321.09;5054839;28;20201;-72
2023/10/19 01:23:06;;;;;;;23.20;19.20;;;8.20;99.90;;;7.39;94.36;99317.66;5054750;28;20265;-72
2023/10/19 01:25:46;;;;;;;21.43;19.13;;;8.30;99.90;;;7.38;94.03;99300.00;5054297;28;20817;-72
2023/10/19 01:28:16;;;;;;;22.83;19.33;;;8.30;99.90;;;7.37;94.57;99298.34;5054378;28;20645;-72
2023/10/19 01:30:51;;;;;;;27.80;20.50;;;8.30;99.90;;;7.36;95.04;99283.38;5054218;28;20715;-72
2023/10/19 01:33:20;;;;;;;25.13;19.83;;;8.30;99.90;;;7.39;95.03;99280.38;5054547;28;20190;-72
2023/10/19 01:38:35;;;;;;;24.80;20.33;;;8.30;99.90;;;7.40;95.35;99263.38;5054178;28;20699;-72
2023/10/19 01:41:13;;;;;;;27.47;20.43;;;8.30;99.90;;;7.36;96.03;99254.09;5054061;28;20545;-72
2023/10/19 01:43:43;;;;;;;24.50;19.63;;;8.30;99.90;;;7.33;96.00;99257.09;5054115;28;20642;-73
2023/10/19 01:46:21;;;;;;;24.03;20.43;;;8.20;99.90;;;7.35;95.79;99260.41;5054239;28;20694;-73
2023/10/19 01:48:55;;;;;;;29.63;20.83;;;8.20;99.90;;;7.35;95.60;99255.09;5054249;28;20196;-73
2023/10/19 01:51:24;;;;;;;24.60;20.60;;;8.30;99.90;;;7.35;95.96;99255.09;5054190;28;20214;-73
2023/10/19 01:53:55;;;;;;;26.10;21.10;;;8.30;99.90;;;7.34;96.09;99248.09;5054152;28;20206;-73
2023/10/19 01:56:24;;;;;;;25.20;21.77;;;8.30;99.90;;;7.31;96.84;99240.47;5053720;28;20279;-73
2023/10/19 01:58:54;;;;;;;26.80;22.53;;;8.00;99.90;;;7.26;96.79;99234.03;5054053;28;20213;-73
2023/10/19 02:01:28;;;;;;;23.83;20.17;;;8.20;99.90;;;7.33;96.82;99217.16;5053683;28;20209;-73
2023/10/19 02:04:00;;;;;;;24.10;20.43;;;8.30;99.90;;;7.30;97.12;99209.53;5054010;28;20193;-73
2023/10/19 02:06:36;;;;;;;24.03;21.43;;;8.20;99.90;;;7.30;97.05;99204.19;5053556;28;20264;-73
2023/10/19 02:09:17;;;;;;;27.10;22.27;;;8.30;99.90;;;7.25;97.27;99198.59;5053927;28;20186;-73
2023/10/19 02:11:47;;;;;;;30.03;22.90;;;8.30;99.90;;;7.24;97.12;99194.25;5053772;28;20300;-73
2023/10/19 02:14:18;;;;;;;29.37;22.90;;;8.20;99.90;;;7.19;97.86;99188.66;5053380;28;20190;-73
2023/10/19 02:16:47;;;;;;;31.40;24.10;;;8.10;99.90;;;7.19;98.22;99175.34;5053799;28;20218;-73
2023/10/19 02:19:15;;;;;;;28.70;22.77;;;8.20;99.90;;;7.26;98.69;99173.59;5053694;28;20293;-73
2023/10/19 02:21:47;;;;;;;31.30;25.00;;;8.20;99.90;;;7.23;98.51;99175.78;5053644;28;20202;-73
2023/10/19 02:24:16;;;;;;;27.73;22.37;;;8.20;99.90;;;7.18;98.60;99173.69;5053651;28;20191;-73
2023/10/19 02:26:46;;;;;;;25.63;22.27;;;8.10;99.90;;;7.20;98.98;99176.97;5053598;28;20208;-73
2023/10/19 02:29:15;;;;;;;26.40;21.27;;;8.10;99.90;;;7.22;98.74;99172.34;5053551;28;20206;-73
2023/10/19 02:31:43;;;;;;;28.50;22.30;;;8.20;99.90;;;7.24;99.12;99162.31;5053474;28;20225;-73
2023/10/19 02:34:14;;;;;;;26.53;21.50;;;8.20;99.90;;;7.24;99.34;99164.16;5053388;28;20210;-73
2023/10/19 02:36:44;;;;;;;28.67;22.37;;;8.10;99.90;;;7.24;98.93;99162.31;5053514;28;20194;-73
2023/10/19 02:39:17;;;;;;;25.97;22.00;;;8.20;99.90;;;7.25;98.74;99174.63;5053404;28;20229;-73
2023/10/19 02:41:46;;;;;;;27.00;21.77;;;8.30;99.90;;;7.29;99.11;99165.28;5053156;28;20653;-73
2023/10/19 02:44:22;;;;;;;26.97;21.50;;;8.20;99.90;;;7.25;98.52;99169.31;5052986;28;20268;-73
2023/10/19 02:46:53;;;;;;;26.23;20.63;;;8.20;99.90;;;7.26;99.04;99165.63;5053372;28;20194;-73
2023/10/19 02:49:23;;;;;;;27.33;20.97;;;8.20;99.90;;;7.25;99.33;99156.00;5053355;28;20194;-73
2023/10/19 02:51:53;;;;;;;28.13;21.20;;;8.10;99.90;;;7.23;99.21;99149.19;5053242;28;20226;-73
2023/10/19 02:54:25;;;;;;;25.13;21.27;;;8.20;99.90;;;7.24;99.26;99154.34;5053219;28;20233;-73
2023/10/19 02:56:54;;;;;;;25.93;21.63;;;8.20;99.90;;;7.29;99.79;99148.50;5053328;28;20213;-73
2023/10/19 02:59:24;;;;;;;26.37;20.83;;;8.20;99.90;;;7.31;99.82;99144.63;5053267;28;20293;-73
2023/10/19 03:02:00;;;;;;;27.37;22.23;;;8.30;99.90;;;7.29;99.57;99143.16;5054015;28;20197;-72
2023/10/19 03:04:29;;;;;;;26.77;22.37;;;8.20;99.90;;;7.25;99.65;99134.72;5053135;28;20229;-72
2023/10/19 03:06:58;;;;;;;31.67;21.97;;;8.20;99.90;;;7.24;100.00;99130.38;5053229;28;20210;-72
2023/10/19 03:09:29;;;;;;;28.30;23.20;;;8.20;99.90;;;7.25;100.00;99132.03;5053158;28;20301;-72
2023/10/19 03:12:02;;;;;;;27.53;22.37;;;8.30;99.90;;;7.20;99.57;99126.41;5052796;28;20398;-72
2023/10/19 03:14:31;;;;;;;28.27;22.53;;;8.10;99.90;;;7.20;100.00;99129.06;5053131;28;20226;-72
2023/10/19 03:17:00;;;;;;;26.53;21.30;;;8.10;99.90;;;7.16;100.00;99126.97;5052753;28;20745;-72
2023/10/19 03:19:28;;;;;;;25.93;21.33;;;8.10;99.90;;;7.17;100.00;99140.06;5053046;28;20209;-72
2023/10/19 03:22:00;;;;;;;25.47;21.43;;;8.10;99.90;;;7.14;99.98;99129.78;5053039;28;20226;-72
2023/10/19 03:24:38;;;;;;;27.53;22.57;;;8.10;99.90;;;7.20;100.00;99126.41;5052966;28;20230;-72
2023/10/19 03:27:15;;;;;;;26.57;22.57;;;8.70;99.90;;;7.25;100.00;99120.56;5055499;28;20186;-72
2023/10/19 03:29:47;;;;;;;29.47;24.20;;;8.30;99.90;;;7.25;99.67;99121.41;5056883;28;20186;-72
2023/10/19 03:32:16;;;;;;;28.50;23.53;;;8.20;99.90;;;7.27;100.00;99116.72;5056464;28;20303;-72
2023/10/19 03:34:47;;;;;;;28.73;24.00;;;7.90;99.90;;;7.26;100.00;99104.41;5056410;28;20803;-72
2023/10/19 03:37:19;;;;;;;28.90;24.53;;;8.20;99.90;;;7.27;100.00;99106.06;5056774;28;20186;-72
2023/10/19 03:39:51;;;;;;;29.67;23.97;;;8.20;99.90;;;7.27;100.00;99099.91;5056715;28;20187;-72
2023/10/19 03:42:21;;;;;;;32.23;25.83;;;8.20;99.90;;;7.21;100.00;99098.81;5056680;28;20220;-72
2023/10/19 03:44:53;;;;;;;32.63;25.10;;;8.10;99.90;;;7.26;100.00;99096.41;5056165;28;20333;-72
2023/10/19 03:47:25;;;;;;;31.37;25.30;;;8.20;99.90;;;7.20;100.00;99090.97;5056552;28;20233;-72
2023/10/19 03:49:54;;;;;;;28.87;24.37;;;8.10;99.90;;;7.19;100.00;99084.03;5056236;28;20595;-72
2023/10/19 03:52:22;;;;;;;28.03;23.63;;;8.10;99.90;;;7.20;100.00;99081.16;5056328;28;20229;-72
2023/10/19 03:54:53;;;;;;;29.77;24.17;;;8.10;99.90;;;7.20;100.00;99085.66;5056278;28;20230;-72
2023/10/19 03:57:22;;;;;;;31.70;25.37;;;8.30;99.90;;;7.15;100.00;99083.56;5056369;28;20225;-72
2023/10/19 03:59:56;;;;;;;33.17;25.73;;;8.10;99.90;;;7.14;100.00;99076.56;5056258;28;20202;-71
2023/10/19 04:02:27;;;;;;;29.30;23.83;;;8.10;99.90;;;7.13;100.00;99080.22;5056312;28;20191;-71
2023/10/19 04:04:57;;;;;;;31.37;24.20;;;8.10;99.90;;;7.12;100.00;99083.91;5056179;28;20261;-71
2023/10/19 04:07:26;;;;;;;28.20;23.47;;;8.20;99.90;;;7.15;100.00;99083.56;5056121;28;20206;-72
2023/10/19 04:10:09;;;;;;;28.80;25.03;;;8.00;99.90;;;7.14;100.00;99073.91;5056119;28;20229;-72
2023/10/19 04:12:42;;;;;;;29.00;24.37;;;8.00;99.90;;;7.12;100.00;99073.28;5056065;28;20210;-72
2023/10/19 04:15:15;;;;;;;28.97;23.10;;;8.10;99.90;;;7.18;100.00;99072.53;5055630;28;20588;-71
2023/10/19 04:17:44;;;;;;;29.67;24.30;;;8.00;99.90;;;7.12;100.00;99074.06;5056011;28;20282;-72
2023/10/19 04:20:36;;;;;;;29.80;24.20;;;8.10;99.90;;;7.16;100.00;99074.53;5055829;28;20212;-72
2023/10/19 04:23:10;;;;;;;28.63;24.17;;;8.10;99.90;;;7.17;100.00;99065.56;5055836;28;20197;-72
2023/10/19 04:25:41;;;;;;;29.47;24.10;;;8.10;99.90;;;7.16;100.00;99055.91;5055439;28;20230;-71
2023/10/19 04:28:10;;;;;;;32.20;24.77;;;8.10;99.90;;;7.11;100.00;99055.63;5055760;28;20213;-71
2023/10/19 04:30:39;;;;;;;29.13;24.47;;;8.60;99.90;;;7.13;100.00;99059.75;5055692;28;20205;-71
2023/10/19 04:33:09;;;;;;;30.33;24.90;;;8.10;99.90;;;7.14;100.00;99055.28;5055588;28;20233;-71
2023/10/19 04:35:41;;;;;;;32.00;26.47;;;8.10;99.90;;;7.06;100.00;99047.34;5055530;28;20222;-71
2023/10/19 04:38:09;;;;;;;29.77;23.77;;;8.00;99.90;;;7.08;100.00;99045.34;5054972;28;20201;-72
2023/10/19 04:40:37;;;;;;;30.80;25.33;;;8.20;99.90;;;7.10;100.00;99043.31;5055535;28;20202;-71
2023/10/19 04:43:07;;;;;;;32.23;26.93;;;8.00;99.90;;;7.04;100.00;99042.22;5055265;28;20213;-71
2023/10/19 04:45:35;;;;;;;34.40;25.93;;;8.10;99.90;;;7.00;100.00;99040.09;5055043;28;20767;-72
2023/10/19 04:48:05;;;;;;;31.20;25.73;;;8.00;99.90;;;7.06;100.00;99053.50;5055643;28;20210;-72
2023/10/19 04:50:33;;;;;;;30.57;24.47;;;7.90;99.90;;;7.06;100.00;99047.34;5055335;28;20198;-72
2023/10/19 04:53:01;;;;;;;31.67;25.73;;;8.00;99.90;;;7.06;100.00;99042.03;5055265;28;20226;-72
2023/10/19 04:55:31;;;;;;;31.87;25.83;;;8.00;99.90;;;7.05;100.00;99041.19;5055243;28;20317;-72
2023/10/19 04:57:59;;;;;;;28.27;24.50;;;8.00;99.90;;;7.06;100.00;99048.19;5055325;28;20294;-72
2023/10/19 05:00:28;;;;;;;28.67;24.30;;;8.00;99.90;;;7.04;100.00;99044.88;5055272;28;20210;-72
2023/10/19 05:02:57;;;;;;;26.77;22.93;;;8.10;99.90;;;7.08;100.00;99032.06;5054817;28;20742;-72
2023/10/19 05:05:26;;;;;;;27.93;22.53;;;8.20;99.90;;;7.08;100.00;99035.53;5054710;28;20743;-72
2023/10/19 05:07:54;;;;;;;28.33;23.37;;;8.20;99.90;;;7.09;100.00;99036.34;5055600;28;20233;-72
2023/10/19 05:10:22;;;;;;;28.10;22.53;;;8.20;99.90;;;7.05;100.00;99027.88;5054690;28;20581;-72
2023/10/19 05:12:50;;;;;;;25.97;22.00;;;8.10;99.90;;;7.07;100.00;99027.72;5054885;28;20234;-72
2023/10/19 05:15:19;;;;;;;30.13;23.73;;;8.00;99.90;;;7.08;100.00;99024.06;5054513;28;20642;-72
2023/10/19 05:17:48;;;;;;;25.50;21.87;;;8.00;99.90;;;7.04;100.00;99022.75;5054861;28;20301;-72
2023/10/19 05:20:17;;;;;;;26.37;22.03;;;8.00;99.90;;;7.05;100.00;99021.78;5054817;28;20256;-72
2023/10/19 05:22:45;;;;;;;27.70;22.00;;;8.10;99.90;;;7.02;100.00;99014.94;5054768;28;20642;-72
2023/10/19 05:25:13;;;;;;;23.47;20.23;;;8.00;99.90;;;7.04;100.00;99017.44;5054647;28;20230;-72
2023/10/19 05:27:42;;;;;;;24.70;21.67;;;8.00;99.90;;;6.95;100.00;99006.03;5054586;28;20220;-72
2023/10/19 05:30:14;;;;;;;25.10;20.90;;;8.00;99.90;;;7.02;100.00;99014.16;5054584;28;20205;-72
2023/10/19 05:32:42;;;;;;;23.10;20.23;;;7.90;99.90;;;7.01;100.00;99017.81;5054487;28;20260;-72
2023/10/19 05:35:18;;;;;;;25.37;21.73;;;7.90;99.90;;;7.03;100.00;99015.78;5054430;28;20230;-71
2023/10/19 05:37:46;;;;;;;25.03;20.30;;;8.00;99.90;;;7.04;100.00;99017.44;5054566;28;20260;-71
2023/10/19 05:40:15;;;;;;;24.43;20.30;;;8.10;99.90;;;7.05;100.00;99025.22;5054533;28;20206;-72
2023/10/19 05:42:47;;;;;;;25.03;21.73;;;7.90;99.90;;;7.03;100.00;99015.78;5054426;28;20216;-72
2023/10/19 05:45:16;;;;;;;28.20;22.93;;;8.10;99.90;;;7.04;100.00;99017.44;5054564;28;20236;-72
2023/10/19 05:47:44;;;;;;;24.17;21.17;;;8.00;99.90;;;7.04;100.00;99025.44;5054264;28;20202;-72
2023/10/19 05:50:15;;;;;;;25.03;21.90;;;7.90;99.90;;;7.02;100.00;99025.59;5053209;28;20210;-72
2023/10/19 05:52:44;;;;;;;25.40;21.57;;;8.00;99.90;;;7.02;100.00;99024.78;5054150;28;20214;-71
2023/10/19 05:55:13;;;;;;;26.23;21.77;;;8.10;99.90;;;7.00;100.00;99032.09;5054037;28;20233;-71
2023/10/19 05:57:42;;;;;;;25.33;22.20;;;8.00;99.90;;;6.97;100.00;99037.78;5054086;28;20210;-71
2023/10/19 06:00:15;;;;;;;26.30;21.87;;;7.90;99.90;;;6.98;100.00;99034.13;5054077;28;20234;-71
2023/10/19 06:02:46;;;;;;;23.93;20.70;;;7.90;99.90;;;7.03;100.00;99037.06;5054045;28;20190;-71
2023/10/19 06:05:17;;;;;;;23.83;21.23;;;7.90;99.90;;;7.01;100.00;99037.25;5053598;28;20226;-71
2023/10/19 06:07:46;;;;;;;24.10;20.73;;;7.90;99.90;;;7.02;100.00;99046.06;5053939;28;20194;-71
2023/10/19 06:10:19;;;;;;;26.80;21.70;;;8.00;99.90;;;6.98;100.00;99028.81;5054668;28;20206;-71
2023/10/19 06:12:50;;;;;;;25.33;21.77;;;7.90;99.90;;;6.99;100.00;99039.25;5053815;28;20240;-72
2023/10/19 06:15:20;;;;;;;25.90;21.57;;;7.90;99.90;;;7.02;100.00;99043.41;5053772;28;20295;-72
2023/10/19 06:17:49;;;;;;;24.43;20.57;;;8.00;99.90;;;7.01;100.00;99039.94;5053743;28;20206;-72
2023/10/19 06:20:24;;;;;;;23.73;20.70;;;8.00;99.90;;;7.00;100.00;99042.75;5053792;28;20245;-72
2023/10/19 06:22:53;;;;;;;25.03;22.07;;;7.90;99.90;;;7.01;100.00;99041.75;5053701;28;20245;-72
2023/10/19 06:25:23;;;;;;;23.13;20.17;;;8.00;99.90;;;7.04;100.00;99041.41;5053583;28;20268;-72
2023/10/19 06:27:54;;;;;;;25.93;21.57;;;8.00;99.90;;;7.01;100.00;99037.25;5053610;28;20241;-72
2023/10/19 06:30:23;;;;;;;22.77;19.47;;;7.90;99.90;;;7.03;100.00;99031.75;5053607;28;20194;-72
2023/10/19 06:32:53;;;;;;;26.87;20.90;;;7.90;99.90;;;7.00;100.00;99022.28;5053564;28;20209;-72
2023/10/19 06:35:24;;;;;;;27.57;21.07;;;8.00;99.90;;;6.99;100.00;99035.75;5053683;28;20229;-72
2023/10/19 06:37:54;;;;;;;24.03;21.03;;;7.90;99.90;;;6.95;100.00;99035.28;5053227;28;20704;-72
2023/10/19 06:40:23;;;;;;;24.30;20.33;;;7.90;99.90;;;6.96;100.00;99028.97;5053515;28;20198;-72
2023/10/19 06:42:51;;;;;;;24.63;21.23;;;7.80;99.90;;;6.94;100.00;99031.00;5053318;28;20220;-72
2023/10/19 06:45:20;;;;;;;25.30;21.07;;;7.90;99.90;;;6.99;100.00;99028.63;5053061;28;20708;-71
2023/10/19 06:47:50;;;;;;;26.27;20.63;;;8.00;99.90;;;6.98;100.00;99026.16;5053383;28;20202;-71
2023/10/19 06:50:23;;;;;;;25.43;20.27;;;7.90;99.90;;;7.00;100.00;99021.47;5053379;28;20248;-71
2023/10/19 06:52:54;;;;;;;22.83;19.97;;;7.90;99.90;;;6.98;100.00;99031.47;5053409;28;20214;-72
2023/10/19 06:55:23;;;;;;;24.43;20.53;;;7.90;99.90;;;7.01;100.00;99020.47;5053249;28;20230;-72
2023/10/19 06:57:55;;;;;;;25.73;20.17;;;7.90;99.90;;;7.02;100.00;99020.28;5052986;28;20202;-72
2023/10/19 07:00:26;;;;;;;21.80;19.27;;;8.00;99.90;;;7.01;100.00;99008.00;5054667;28;20285;-72
2023/10/19 07:03:00;;;;;;;22.50;19.03;;;7.90;99.90;;;7.01;100.00;99017.81;5057460;28;20273;-72
2023/10/19 07:05:30;;;;;;;23.30;18.97;;;8.10;99.90;;;7.01;100.00;99020.47;5057357;28;20284;-72
2023/10/19 07:08:01;;;;;;;22.93;19.30;;;7.90;99.90;;;7.00;100.00;99011.66;5057404;28;20194;-71
2023/10/19 07:10:30;;;;;;;21.77;19.03;;;7.90;99.90;;;7.03;100.00;99026.44;5056996;28;20552;-71
2023/10/19 07:12:58;;;;;;;23.10;18.53;;;8.00;99.90;;;7.03;100.00;99013.13;5058044;28;20245;-72
2023/10/19 07:15:29;;;;;;;21.70;18.50;;;8.00;99.90;;;7.02;100.00;99014.16;5056658;28;20312;-72
2023/10/19 07:17:58;;;;;;;20.53;17.70;;;7.90;99.90;;;7.05;100.00;99011.13;5057160;28;20196;-72
2023/10/19 07:20:28;;;;;;;18.80;16.87;;;8.00;99.90;;;7.04;100.00;99018.28;5057045;28;20213;-71
2023/10/19 07:23:03;;;;;;;20.63;18.07;;;8.10;99.90;;;7.03;100.00;99016.59;5057040;28;20256;-71
2023/10/19 07:25:31;;;;;;;20.17;16.93;;;8.00;99.90;;;7.02;100.00;99019.47;5056926;28;20253;-71
2023/10/19 07:28:00;;;;;;;20.23;17.93;;;8.00;99.90;;;7.02;100.00;99024.78;5056961;28;20217;-72
2023/10/19 07:30:30;;;;;;;20.47;18.17;;;8.00;99.90;;;7.01;100.00;99020.47;5056868;28;20202;-72
2023/10/19 07:32:59;;;;;;;20.43;17.70;;;8.00;99.90;;;7.03;100.00;99023.75;5056837;28;20214;-72
2023/10/19 07:35:30;;;;;;;20.97;16.97;;;7.90;99.90;;;7.02;100.00;99019.47;5056647;28;20233;-72
2023/10/19 07:38:04;;;;;;;18.90;16.13;;;7.90;99.90;;;7.02;100.00;99030.91;5056484;28;20628;-72
2023/10/19 07:40:33;;;;;;;18.47;16.47;;;7.90;99.90;;;7.01;100.00;99031.94;5056690;28;20206;-72
2023/10/19 07:43:03;;;;;;;20.70;16.00;;;7.90;99.90;;;7.01;100.00;99033.78;5056384;28;20213;-72
2023/10/19 07:45:34;;;;;;;20.07;16.40;;;7.90;99.90;;;7.00;100.00;99029.44;5056596;28;20222;-71
2023/10/19 07:48:06;;;;;;;17.80;15.90;;;8.00;99.90;;;7.03;100.00;99026.44;5056240;28;20205;-72
2023/10/19 07:50:36;;;;;;;17.33;15.53;;;7.90;99.90;;;7.04;100.00;99025.44;5056556;28;20194;-72
2023/10/19 07:53:05;;;;;;;16.93;15.07;;;8.00;99.90;;;7.06;100.00;99023.41;5056171;28;20676;-72
2023/10/19 07:55:34;;;;;;;18.87;16.13;;;7.90;99.90;;;7.04;100.00;99020.94;5056313;28;20356;-72
2023/10/19 07:58:03;;;;;;;16.90;15.07;;;8.10;99.90;;;7.09;100.00;99020.38;5056076;28;20209;-72
2023/10/19 08:00:33;;;;;;;16.43;14.73;;;8.10;99.90;;;7.08;100.00;99019.56;5055975;28;20585;-72
2023/10/19 08:03:02;;;;;;;16.13;14.43;;;8.00;99.90;;;7.12;100.00;99009.41;5056291;28;20217;-72
2023/10/19 08:05:31;;;;;;;17.03;15.23;;;8.10;99.90;;;7.13;100.00;99014.53;5055812;28;20660;-71
2023/10/19 08:08:00;;;;;;;16.60;14.80;;;8.10;99.90;;;7.07;100.00;99017.09;5055886;28;20571;-71
2023/10/19 08:10:30;;;;;;;16.13;14.43;;;8.20;99.90;;;7.13;100.00;99021.69;5055796;28;20585;-71
2023/10/19 08:12:58;;;;;;;16.40;14.70;;;8.00;99.90;;;7.13;100.00;99011.88;5055036;28;20244;-71
2023/10/19 08:15:30;;;;;;;15.70;14.10;;;8.10;99.90;;;7.14;100.00;99016.19;5055882;28;20261;-72
2023/10/19 08:17:58;;;;;;;15.57;13.97;;;8.10;99.90;;;7.15;100.00;99017.03;5056241;28;20210;-72
2023/10/19 08:20:30;;;;;;;16.37;13.97;;;8.10;99.90;;;7.18;100.00;99024.63;5055626;28;20725;-71
2023/10/19 08:23:02;;;;;;;13.70;12.30;;;8.20;99.90;;;7.17;100.00;99024.81;5055963;28;20190;-71
2023/10/19 08:25:32;;;;;;;16.57;14.83;;;8.10;99.90;;;7.16;100.00;99018.66;5055837;28;20226;-71
2023/10/19 08:28:20;;;;;;;15.63;13.63;;;8.10;99.90;;;7.19;100.00;99015.66;5055440;28;20676;-71
2023/10/19 08:30:57;;;;;;;15.47;13.57;;;8.20;99.90;;;7.20;100.00;99011.97;5055795;28;20212;-71
2023/10/19 08:33:27;;;;;;;14.57;13.07;;;8.40;99.90;;;7.23;100.00;99011.59;5055741;28;20197;-71
2023/10/19 08:35:56;;;;;;;13.47;12.07;;;8.20;99.90;;;7.25;100.00;99014.94;5055517;28;20317;-72
2023/10/19 08:38:25;;;;;;;13.50;12.10;;;8.20;99.90;;;7.25;100.00;99012.25;5055366;28;20207;-72
2023/10/19 08:40:55;;;;;;;13.20;11.80;;;8.20;99.90;;;7.26;100.00;99016.56;5055614;28;20260;-71
2023/10/19 08:43:25;;;;;;;13.43;12.03;;;8.20;99.90;;;7.30;100.00;99023.19;5055116;28;20559;-70
2023/10/19 08:45:55;;;;;;;14.57;12.97;;;8.40;99.90;;;7.30;100.00;99023.19;5055556;28;20623;-72
2023/10/19 08:48:24;;;;;;;12.27;10.97;;;8.30;99.90;;;7.31;100.00;99035.50;5055181;28;20210;-72
2023/10/19 08:50:55;;;;;;;12.53;10.83;;;8.20;99.90;;;7.33;100.00;99025.47;5055468;28;20202;-71
2023/10/19 08:53:25;;;;;;;12.20;11.00;;;8.50;99.90;;;7.35;100.00;99018.16;5055441;28;20186;-71
2023/10/19 08:55:56;;;;;;;11.80;10.67;;;8.40;99.90;;;7.39;100.00;99010.63;5054920;28;20699;-71
2023/10/19 08:58:27;;;;;;;11.03;9.93;;;8.40;99.90;;;7.37;100.00;99018.78;5055077;28;20201;-71
2023/10/19 09:00:56;;;;;;;12.53;9.70;;;8.30;99.90;;;7.31;100.00;99024.84;5055275;28;20283;-71
2023/10/19 09:03:25;;;;;;;11.70;10.10;;;8.40;99.90;;;7.34;100.00;99019.16;5055213;28;20206;-71
2023/10/19 09:05:56;;;;;;;10.60;9.60;;;8.30;99.90;;;7.37;100.00;99018.78;5055185;28;20275;-71
2023/10/19 09:08:24;;;;;;;10.50;9.50;;;8.30;99.90;;;7.40;100.00;99012.25;5055136;28;20229;-71
2023/10/19 09:10:55;;;;;;;10.53;9.43;;;8.40;99.90;;;7.42;100.00;99011.09;5055034;28;20288;-71
2023/10/19 09:13:24;;;;;;;9.53;8.63;;;8.50;99.90;;;7.42;100.00;99011.09;5054751;28;20236;-71
2023/10/19 09:15:55;;;;;;;10.73;9.63;;;8.40;99.90;;;7.43;100.00;99017.25;5054466;28;20230;-70
2023/10/19 09:18:27;;;;;;;10.00;9.00;;;8.40;99.90;;;7.45;100.00;99015.22;5055006;28;20218;-71
2023/10/19 09:21:02;;;;;;;8.73;7.93;;;8.40;99.90;;;7.47;100.00;99011.38;5054910;28;20194;-72
2023/10/19 09:23:31;;;;;;;8.33;7.57;;;8.50;99.90;;;7.43;100.00;98999.41;5053861;28;20196;-72
2023/10/19 09:26:03;;;;;;;8.43;7.53;;;8.40;99.90;;;7.47;100.00;98999.88;5054272;28;20275;-71
2023/10/19 09:28:33;;;;;;;10.13;7.47;;;8.40;99.90;;;7.46;100.00;99000.91;5054768;28;20190;-71
2023/10/19 09:31:03;;;;;;;8.60;7.80;;;8.40;99.90;;;7.50;100.00;98992.34;5054470;28;20214;-71
2023/10/19 09:33:34;;;;;;;8.77;7.70;;;8.50;99.90;;;7.49;100.00;98988.06;5054554;28;20214;-71
2023/10/19 09:36:12;;;;;;;9.00;8.10;;;8.50;99.90;;;7.53;100.00;98981.34;5054439;28;20236;-72
2023/10/19 09:38:48;;;;;;;10.80;8.57;;;8.40;99.90;;;7.56;100.00;98996.13;5054193;28;20652;-71
2023/10/19 09:41:20;;;;;;;9.40;8.50;;;8.50;99.90;;;7.57;100.00;98990.63;5054448;28;20284;-71
2023/10/19 09:43:50;;;;;;;10.13;8.70;;;8.50;99.90;;;7.60;100.00;98982.25;5054643;28;20280;-72
2023/10/19 09:46:24;;;;;;;9.97;8.97;;;8.60;99.90;;;7.65;100.00;98979.03;5054282;28;20229;-71
2023/10/19 09:48:52;;;;;;;10.47;9.37;;;8.60;99.90;;;7.67;100.00;98966.38;5054342;28;20193;-71
2023/10/19 09:51:24;;;;;;;9.73;8.77;;;8.70;99.90;;;7.71;100.00;98980.13;5054239;28;20252;-71
2023/10/19 09:54:02;;;;;;;10.07;8.47;;;8.60;99.90;;;7.68;100.00;98996.50;5054224;28;20201;-71
2023/10/19 09:56:41;;;;;;;10.40;9.30;;;8.70;99.90;;;7.69;100.00;99000.81;5054043;28;20226;-72
2023/10/19 09:59:26;;;;;;;8.73;7.83;;;8.70;99.90;;;7.68;100.00;98993.81;5054111;28;20227;-72
2023/10/19 10:02:12;;;;;;;11.87;8.80;;;8.70;99.90;;;7.71;100.00;98996.94;5054083;28;20210;-72
2023/10/19 10:04:45;;;;;;;8.43;7.60;;;8.70;99.90;;;7.69;100.00;98980.34;5053931;28;20237;-71
2023/10/19 10:07:13;;;;;;;8.53;7.67;;;8.70;99.90;;;7.70;100.00;98982.00;5054062;28;20186;-72
2023/10/19 10:09:49;;;;;;;7.30;6.70;;;8.80;99.90;;;7.71;100.00;98990.78;5053720;28;20645;-72
2023/10/19 10:12:22;;;;;;;8.40;7.67;;;8.70;99.90;;;7.76;100.00;98988.41;5053565;28;20194;-71
2023/10/19 10:14:59;;;;;;;9.07;8.17;;;8.80;99.90;;;7.79;100.00;98985.38;5053471;28;20223;-72
2023/10/19 10:17:27;;;;;;;8.70;7.73;;;8.90;99.90;;;7.83;100.00;98986.66;5053540;28;20585;-71
2023/10/19 10:20:28;;;;;;;8.50;7.70;;;8.70;99.90;;;7.85;100.00;98989.94;5053734;28;20279;-71
2023/10/19 10:23:21;;;;;;;10.13;9.13;;;8.80;99.90;;;7.88;100.00;98989.59;5053783;28;20277;-71
2023/10/19 10:25:53;;;;;;;8.43;7.70;;;8.80;99.90;;;7.88;100.00;98984.25;5053639;28;20300;-71
2023/10/19 10:28:24;;;;;;;8.20;7.43;;;9.00;99.90;;;7.89;100.00;98983.25;5053355;28;20568;-72
2023/10/19 10:31:20;;;;;;;7.73;7.03;;;9.00;99.90;;;7.89;100.00;98988.56;5053652;28;20248;-72
2023/10/19 10:33:51;;;;;;;8.67;7.87;;;9.00;99.90;;;7.93;100.00;98973.88;5053297;28;20644;-72
2023/10/19 10:36:21;;;;;;;9.20;8.33;;;8.90;99.90;;;7.95;100.00;98975.34;5053115;28;20234;-71